sensor_id;sensor_type;location;lat;lon;timestamp;temperature;humidity
40996;DHT22;26723;57.478;12.066;2024-02-21T00:01:56;5.40;99.90
40996;DHT22;26723;57.478;12.066;2024-02-21T00:05:05;5.40;99.90
40996;DHT22;26723;57.478;12.066;2024-02-21T00:08:13;5.40;99.90
40996;DHT22;26723;57.478;12.066;2024-02-21T00:11:23;5.40;99.90
40996;DHT22;26723;57.478;12.066;2024-02-21T00:14:31;5.40;99.90
40996;DHT22;26723;57.478;12.066;2024-02-21T00:17:40;5.40;99.90
40996;DHT22;26723;57.478;12.066;2024-02-21T00:20:49;5.40;99.90
40996;DHT22;26723;57.478;12.066;2024-02-21T00:23:57;5.50;99.90
40996;DHT22;26723;57.478;12.066;2024-02-21T00:27:05;5.40;99.90
40996;DHT22;26723;57.478;12.066;2024-02-21T00:30:14;5.40;99.90
40996;DHT22;26723;57.478;12.066;2024-02-21T00:33:23;5.40;99.90
40996;DHT22;26723;57.478;12.066;2024-02-21T00:36:32;5.50;99.90
40996;DHT22;26723;57.478;12.066;2024-02-21T00:39:41;5.40;99.90
40996;DHT22;26723;57.478;12.066;2024-02-21T00:42:49;5.40;99.90
40996;DHT22;26723;57.478;12.066;2024-02-21T00:45:57;5.40;99.90
40996;DHT22;26723;57.478;12.066;2024-02-21T00:49:07;5.50;99.90
40996;DHT22;26723;57.478;12.066;2024-02-21T00:52:16;5.50;99.90
40996;DHT22;26723;57.478;12.066;2024-02-21T00:55:24;5.50;99.90
40996;DHT22;26723;57.478;12.066;2024-02-21T00:58:33;5.50;99.90
40996;DHT22;26723;57.478;12.066;2024-02-21T01:01:42;5.50;99.90
40996;DHT22;26723;57.478;12.066;2024-02-21T01:04:52;5.50;99.90
40996;DHT22;26723;57.478;12.066;2024-02-21T01:08:00;5.50;99.90
40996;DHT22;26723;57.478;12.066;2024-02-21T01:11:08;5.50;99.90
40996;DHT22;26723;57.478;12.066;2024-02-21T01:14:17;5.50;99.90
40996;DHT22;26723;57.478;12.066;2024-02-21T01:17:25;5.50;99.90
40996;DHT22;26723;57.478;12.066;2024-02-21T01:20:35;5.50;99.90
40996;DHT22;26723;57.478;12.066;2024-02-21T01:23:43;5.60;99.90
40996;DHT22;26723;57.478;12.066;2024-02-21T01:26:52;5.60;99.90
40996;DHT22;26723;57.478;12.066;2024-02-21T01:30:01;5.60;99.90
40996;DHT22;26723;57.478;12.066;2024-02-21T01:33:09;5.60;99.90
40996;DHT22;26723;57.478;12.066;2024-02-21T01:36:19;5.60;99.90
40996;DHT22;26723;57.478;12.066;2024-02-21T01:39:28;5.60;99.90
40996;DHT22;26723;57.478;12.066;2024-02-21T01:42:38;5.50;99.90
40996;DHT22;26723;57.478;12.066;2024-02-21T01:45:49;5.60;99.90
40996;DHT22;26723;57.478;12.066;2024-02-21T01:48:59;5.60;99.90
40996;DHT22;26723;57.478;12.066;2024-02-21T01:52:11;5.70;99.90
40996;DHT22;26723;57.478;12.066;2024-02-21T01:55:21;5.60;99.90
40996;DHT22;26723;57.478;12.066;2024-02-21T01:58:30;5.60;99.90
40996;DHT22;26723;57.478;12.066;2024-02-21T02:01:38;5.60;99.90
40996;DHT22;26723;57.478;12.066;2024-02-21T02:04:47;5.60;99.90
40996;DHT22;26723;57.478;12.066;2024-02-21T02:07:56;5.70;99.90
40996;DHT22;26723;57.478;12.066;2024-02-21T02:11:06;5.70;99.90
40996;DHT22;26723;57.478;12.066;2024-02-21T02:14:15;5.70;99.90
40996;DHT22;26723;57.478;12.066;2024-02-21T02:17:23;5.70;99.90
40996;DHT22;26723;57.478;12.066;2024-02-21T02:20:31;5.70;99.90
40996;DHT22;26723;57.478;12.066;2024-02-21T02:23:41;5.70;99.90
40996;DHT22;26723;57.478;12.066;2024-02-21T02:26:50;5.80;99.90
40996;DHT22;26723;57.478;12.066;2024-02-21T02:29:59;5.80;99.90
40996;DHT22;26723;57.478;12.066;2024-02-21T02:33:07;5.80;99.90
40996;DHT22;26723;57.478;12.066;2024-02-21T02:36:16;5.80;99.90
40996;DHT22;26723;57.478;12.066;2024-02-21T02:39:26;5.80;99.90
40996;DHT22;26723;57.478;12.066;2024-02-21T02:42:35;5.80;99.90
40996;DHT22;26723;57.478;12.066;2024-02-21T02:45:44;5.90;99.90
40996;DHT22;26723;57.478;12.066;2024-02-21T02:48:52;5.90;99.90
40996;DHT22;26723;57.478;12.066;2024-02-21T02:52:00;6.00;99.90
40996;DHT22;26723;57.478;12.066;2024-02-21T02:55:10;6.10;99.90
40996;DHT22;26723;57.478;12.066;2024-02-21T02:58:18;6.20;99.90
40996;DHT22;26723;57.478;12.066;2024-02-21T03:01:27;6.20;99.90
40996;DHT22;26723;57.478;12.066;2024-02-21T03:04:35;6.20;99.90
40996;DHT22;26723;57.478;12.066;2024-02-21T03:07:44;6.20;99.90
40996;DHT22;26723;57.478;12.066;2024-02-21T03:10:53;6.20;99.90
40996;DHT22;26723;57.478;12.066;2024-02-21T03:14:02;6.20;99.90
40996;DHT22;26723;57.478;12.066;2024-02-21T03:17:10;6.10;99.90
40996;DHT22;26723;57.478;12.066;2024-02-21T03:20:19;6.20;99.90
40996;DHT22;26723;57.478;12.066;2024-02-21T03:23:29;6.10;99.90
40996;DHT22;26723;57.478;12.066;2024-02-21T03:26:39;6.10;99.90
40996;DHT22;26723;57.478;12.066;2024-02-21T03:29:47;6.10;99.90
40996;DHT22;26723;57.478;12.066;2024-02-21T03:32:55;6.00;99.90
40996;DHT22;26723;57.478;12.066;2024-02-21T03:36:04;6.00;99.90
40996;DHT22;26723;57.478;12.066;2024-02-21T03:39:12;6.00;99.90
40996;DHT22;26723;57.478;12.066;2024-02-21T03:42:29;5.90;99.90
40996;DHT22;26723;57.478;12.066;2024-02-21T03:45:38;5.90;99.90
40996;DHT22;26723;57.478;12.066;2024-02-21T03:48:47;5.80;99.90
40996;DHT22;26723;57.478;12.066;2024-02-21T03:51:55;5.70;99.90
40996;DHT22;26723;57.478;12.066;2024-02-21T03:55:04;5.70;99.90
40996;DHT22;26723;57.478;12.066;2024-02-21T03:58:16;5.70;99.90
40996;DHT22;26723;57.478;12.066;2024-02-21T04:01:24;5.70;99.90
40996;DHT22;26723;57.478;12.066;2024-02-21T04:04:33;5.60;99.90
40996;DHT22;26723;57.478;12.066;2024-02-21T04:07:41;5.70;99.90
40996;DHT22;26723;57.478;12.066;2024-02-21T04:10:49;5.70;99.90
40996;DHT22;26723;57.478;12.066;2024-02-21T04:13:59;5.70;99.90
40996;DHT22;26723;57.478;12.066;2024-02-21T04:17:07;5.70;99.90
40996;DHT22;26723;57.478;12.066;2024-02-21T04:20:17;5.70;99.90
40996;DHT22;26723;57.478;12.066;2024-02-21T04:23:26;5.70;99.90
40996;DHT22;26723;57.478;12.066;2024-02-21T04:26:35;5.70;99.90
40996;DHT22;26723;57.478;12.066;2024-02-21T04:29:45;5.80;99.90
40996;DHT22;26723;57.478;12.066;2024-02-21T04:32:53;5.90;99.90
40996;DHT22;26723;57.478;12.066;2024-02-21T04:36:02;6.10;99.90
40996;DHT22;26723;57.478;12.066;2024-02-21T04:39:10;6.20;99.90
40996;DHT22;26723;57.478;12.066;2024-02-21T04:42:19;6.40;99.90
40996;DHT22;26723;57.478;12.066;2024-02-21T04:45:28;6.50;99.90
40996;DHT22;26723;57.478;12.066;2024-02-21T04:48:36;6.50;99.90
40996;DHT22;26723;57.478;12.066;2024-02-21T04:51:45;6.50;99.90
40996;DHT22;26723;57.478;12.066;2024-02-21T04:54:53;6.50;99.90
40996;DHT22;26723;57.478;12.066;2024-02-21T04:58:01;6.60;99.90
40996;DHT22;26723;57.478;12.066;2024-02-21T05:01:24;6.60;99.90
40996;DHT22;26723;57.478;12.066;2024-02-21T05:04:49;6.60;99.90
40996;DHT22;26723;57.478;12.066;2024-02-21T05:07:57;6.60;99.90
40996;DHT22;26723;57.478;12.066;2024-02-21T05:11:06;6.60;99.90
40996;DHT22;26723;57.478;12.066;2024-02-21T05:14:14;6.60;99.90
40996;DHT22;26723;57.478;12.066;2024-02-21T05:17:24;6.60;99.90
40996;DHT22;26723;57.478;12.066;2024-02-21T05:20:32;6.60;99.90
40996;DHT22;26723;57.478;12.066;2024-02-21T05:23:41;6.60;99.90
40996;DHT22;26723;57.478;12.066;2024-02-21T05:26:49;6.60;99.90
40996;DHT22;26723;57.478;12.066;2024-02-21T05:29:57;6.60;99.90
40996;DHT22;26723;57.478;12.066;2024-02-21T05:33:07;6.60;99.90
40996;DHT22;26723;57.478;12.066;2024-02-21T05:36:17;6.60;99.90
40996;DHT22;26723;57.478;12.066;2024-02-21T05:39:25;6.60;99.90
40996;DHT22;26723;57.478;12.066;2024-02-21T05:42:36;6.60;99.90
40996;DHT22;26723;57.478;12.066;2024-02-21T05:45:44;6.60;99.90
40996;DHT22;26723;57.478;12.066;2024-02-21T05:48:54;6.50;99.90
40996;DHT22;26723;57.478;12.066;2024-02-21T05:52:02;6.50;99.90
40996;DHT22;26723;57.478;12.066;2024-02-21T05:55:10;6.50;99.90
40996;DHT22;26723;57.478;12.066;2024-02-21T05:58:18;6.50;99.90
40996;DHT22;26723;57.478;12.066;2024-02-21T06:01:29;6.50;99.90
40996;DHT22;26723;57.478;12.066;2024-02-21T06:04:39;6.50;99.90
40996;DHT22;26723;57.478;12.066;2024-02-21T06:07:47;6.50;99.90
40996;DHT22;26723;57.478;12.066;2024-02-21T06:10:55;6.50;99.90
40996;DHT22;26723;57.478;12.066;2024-02-21T06:14:04;6.50;99.90
40996;DHT22;26723;57.478;12.066;2024-02-21T06:17:12;6.50;99.90
40996;DHT22;26723;57.478;12.066;2024-02-21T06:20:22;6.50;99.90
40996;DHT22;26723;57.478;12.066;2024-02-21T06:23:30;6.50;99.90
40996;DHT22;26723;57.478;12.066;2024-02-21T06:26:40;6.40;99.90
40996;DHT22;26723;57.478;12.066;2024-02-21T06:29:48;6.40;99.90
40996;DHT22;26723;57.478;12.066;2024-02-21T06:32:56;6.40;99.90
40996;DHT22;26723;57.478;12.066;2024-02-21T06:36:08;6.40;99.90
40996;DHT22;26723;57.478;12.066;2024-02-21T06:39:16;6.40;99.90
40996;DHT22;26723;57.478;12.066;2024-02-21T06:42:24;6.40;99.90
40996;DHT22;26723;57.478;12.066;2024-02-21T06:45:33;6.40;99.90
40996;DHT22;26723;57.478;12.066;2024-02-21T06:48:41;6.40;99.90
40996;DHT22;26723;57.478;12.066;2024-02-21T06:51:55;6.40;99.90
40996;DHT22;26723;57.478;12.066;2024-02-21T06:55:04;6.40;99.90
40996;DHT22;26723;57.478;12.066;2024-02-21T06:58:12;6.50;99.90
40996;DHT22;26723;57.478;12.066;2024-02-21T07:01:22;6.50;99.90
40996;DHT22;26723;57.478;12.066;2024-02-21T07:04:30;6.50;99.90
40996;DHT22;26723;57.478;12.066;2024-02-21T07:07:42;6.50;99.90
40996;DHT22;26723;57.478;12.066;2024-02-21T07:10:51;6.60;99.90
40996;DHT22;26723;57.478;12.066;2024-02-21T07:13:59;6.60;99.90
40996;DHT22;26723;57.478;12.066;2024-02-21T07:17:07;6.60;99.90
40996;DHT22;26723;57.478;12.066;2024-02-21T07:20:16;6.60;99.90
40996;DHT22;26723;57.478;12.066;2024-02-21T07:23:26;6.60;99.90
40996;DHT22;26723;57.478;12.066;2024-02-21T07:26:34;6.60;99.90
40996;DHT22;26723;57.478;12.066;2024-02-21T07:29:42;6.60;99.90
40996;DHT22;26723;57.478;12.066;2024-02-21T07:32:54;6.50;99.90
40996;DHT22;26723;57.478;12.066;2024-02-21T07:36:06;6.50;99.90
40996;DHT22;26723;57.478;12.066;2024-02-21T07:39:18;6.50;99.90
40996;DHT22;26723;57.478;12.066;2024-02-21T07:42:26;6.50;99.90
40996;DHT22;26723;57.478;12.066;2024-02-21T07:45:34;6.40;99.90
40996;DHT22;26723;57.478;12.066;2024-02-21T07:48:42;6.40;99.90
40996;DHT22;26723;57.478;12.066;2024-02-21T07:51:51;6.40;99.90
40996;DHT22;26723;57.478;12.066;2024-02-21T07:55:01;6.40;99.90
40996;DHT22;26723;57.478;12.066;2024-02-21T07:58:10;6.40;99.90
40996;DHT22;26723;57.478;12.066;2024-02-21T08:01:18;6.40;99.90
40996;DHT22;26723;57.478;12.066;2024-02-21T08:04:28;6.40;99.90
40996;DHT22;26723;57.478;12.066;2024-02-21T08:07:36;6.40;99.90
40996;DHT22;26723;57.478;12.066;2024-02-21T08:10:46;6.50;99.90
40996;DHT22;26723;57.478;12.066;2024-02-21T08:13:54;6.60;99.90
40996;DHT22;26723;57.478;12.066;2024-02-21T08:17:03;6.60;99.90
40996;DHT22;26723;57.478;12.066;2024-02-21T08:20:11;6.60;99.90
40996;DHT22;26723;57.478;12.066;2024-02-21T08:23:23;6.60;99.90
40996;DHT22;26723;57.478;12.066;2024-02-21T08:26:34;6.70;99.90
40996;DHT22;26723;57.478;12.066;2024-02-21T08:29:43;6.70;99.90
40996;DHT22;26723;57.478;12.066;2024-02-21T08:32:51;6.70;99.90
40996;DHT22;26723;57.478;12.066;2024-02-21T08:36:01;6.60;99.90
40996;DHT22;26723;57.478;12.066;2024-02-21T08:39:10;6.50;99.90
40996;DHT22;26723;57.478;12.066;2024-02-21T08:42:19;6.50;99.90
40996;DHT22;26723;57.478;12.066;2024-02-21T08:45:29;6.50;99.90
40996;DHT22;26723;57.478;12.066;2024-02-21T08:48:37;6.50;99.90
40996;DHT22;26723;57.478;12.066;2024-02-21T08:51:45;6.50;99.90
40996;DHT22;26723;57.478;12.066;2024-02-21T08:54:55;6.40;99.90
40996;DHT22;26723;57.478;12.066;2024-02-21T08:58:05;6.40;99.90
40996;DHT22;26723;57.478;12.066;2024-02-21T09:01:13;6.30;99.90
40996;DHT22;26723;57.478;12.066;2024-02-21T09:04:22;6.40;99.90
40996;DHT22;26723;57.478;12.066;2024-02-21T09:07:31;6.40;99.90
40996;DHT22;26723;57.478;12.066;2024-02-21T09:10:39;6.40;99.90
40996;DHT22;26723;57.478;12.066;2024-02-21T09:13:49;6.40;99.90
40996;DHT22;26723;57.478;12.066;2024-02-21T09:16:58;6.50;99.90
40996;DHT22;26723;57.478;12.066;2024-02-21T09:20:08;6.60;99.90
40996;DHT22;26723;57.478;12.066;2024-02-21T09:23:19;6.90;99.90
40996;DHT22;26723;57.478;12.066;2024-02-21T09:26:27;7.20;99.90
40996;DHT22;26723;57.478;12.066;2024-02-21T09:29:37;7.20;99.90
40996;DHT22;26723;57.478;12.066;2024-02-21T09:32:46;7.30;99.90
40996;DHT22;26723;57.478;12.066;2024-02-21T09:35:55;7.30;99.90
40996;DHT22;26723;57.478;12.066;2024-02-21T09:39:03;7.40;99.90
40996;DHT22;26723;57.478;12.066;2024-02-21T09:42:12;7.40;99.90
40996;DHT22;26723;57.478;12.066;2024-02-21T09:45:24;7.30;99.90
40996;DHT22;26723;57.478;12.066;2024-02-21T09:48:45;7.20;99.90
40996;DHT22;26723;57.478;12.066;2024-02-21T09:52:01;7.20;99.90
40996;DHT22;26723;57.478;12.066;2024-02-21T09:55:11;7.50;99.90
40996;DHT22;26723;57.478;12.066;2024-02-21T09:58:22;8.50;99.90
40996;DHT22;26723;57.478;12.066;2024-02-21T10:01:32;9.00;99.90
40996;DHT22;26723;57.478;12.066;2024-02-21T10:04:41;8.70;99.90
40996;DHT22;26723;57.478;12.066;2024-02-21T10:07:50;8.30;99.90
40996;DHT22;26723;57.478;12.066;2024-02-21T10:10:59;8.00;99.90
40996;DHT22;26723;57.478;12.066;2024-02-21T10:14:08;8.00;99.90
40996;DHT22;26723;57.478;12.066;2024-02-21T10:17:18;7.70;99.90
40996;DHT22;26723;57.478;12.066;2024-02-21T10:20:27;7.50;99.90
40996;DHT22;26723;57.478;12.066;2024-02-21T10:23:46;7.30;99.90
40996;DHT22;26723;57.478;12.066;2024-02-21T10:26:59;7.10;99.90
40996;DHT22;26723;57.478;12.066;2024-02-21T10:30:13;6.90;99.90
40996;DHT22;26723;57.478;12.066;2024-02-21T10:33:24;6.90;99.90
40996;DHT22;26723;57.478;12.066;2024-02-21T10:36:35;6.70;99.90
40996;DHT22;26723;57.478;12.066;2024-02-21T10:39:43;6.70;99.90
40996;DHT22;26723;57.478;12.066;2024-02-21T10:42:56;6.50;99.90
40996;DHT22;26723;57.478;12.066;2024-02-21T10:46:06;6.60;99.90
40996;DHT22;26723;57.478;12.066;2024-02-21T10:49:22;6.70;99.90
40996;DHT22;26723;57.478;12.066;2024-02-21T10:52:43;6.60;99.90
40996;DHT22;26723;57.478;12.066;2024-02-21T10:55:58;6.40;99.90
40996;DHT22;26723;57.478;12.066;2024-02-21T10:59:08;6.40;99.90
40996;DHT22;26723;57.478;12.066;2024-02-21T11:02:17;6.50;99.90
40996;DHT22;26723;57.478;12.066;2024-02-21T11:05:28;6.50;99.90
40996;DHT22;26723;57.478;12.066;2024-02-21T11:08:37;6.40;99.90
40996;DHT22;26723;57.478;12.066;2024-02-21T11:11:45;6.30;99.90
40996;DHT22;26723;57.478;12.066;2024-02-21T11:15:04;6.30;99.90
40996;DHT22;26723;57.478;12.066;2024-02-21T11:18:23;6.50;99.90
40996;DHT22;26723;57.478;12.066;2024-02-21T11:21:34;6.50;99.90
40996;DHT22;26723;57.478;12.066;2024-02-21T11:24:43;6.60;99.90
40996;DHT22;26723;57.478;12.066;2024-02-21T11:27:59;6.60;99.90
40996;DHT22;26723;57.478;12.066;2024-02-21T11:31:08;6.70;99.90
40996;DHT22;26723;57.478;12.066;2024-02-21T11:34:18;6.80;99.90
40996;DHT22;26723;57.478;12.066;2024-02-21T11:37:28;6.90;99.90
40996;DHT22;26723;57.478;12.066;2024-02-21T11:40:39;7.00;99.90
40996;DHT22;26723;57.478;12.066;2024-02-21T11:43:49;7.00;99.90
40996;DHT22;26723;57.478;12.066;2024-02-21T11:46:58;7.00;99.90
40996;DHT22;26723;57.478;12.066;2024-02-21T11:50:10;7.00;99.90
40996;DHT22;26723;57.478;12.066;2024-02-21T11:53:22;7.20;99.90
40996;DHT22;26723;57.478;12.066;2024-02-21T11:56:30;7.30;99.90
40996;DHT22;26723;57.478;12.066;2024-02-21T11:59:44;7.50;99.90
40996;DHT22;26723;57.478;12.066;2024-02-21T12:02:52;7.60;99.90
40996;DHT22;26723;57.478;12.066;2024-02-21T12:06:03;7.50;99.90
40996;DHT22;26723;57.478;12.066;2024-02-21T12:09:16;7.40;99.90
40996;DHT22;26723;57.478;12.066;2024-02-21T12:12:24;7.40;99.90
40996;DHT22;26723;57.478;12.066;2024-02-21T12:15:32;7.50;99.90
40996;DHT22;26723;57.478;12.066;2024-02-21T12:18:40;7.40;99.90
40996;DHT22;26723;57.478;12.066;2024-02-21T12:21:49;7.40;99.90
40996;DHT22;26723;57.478;12.066;2024-02-21T12:25:03;7.40;99.90
40996;DHT22;26723;57.478;12.066;2024-02-21T12:28:15;7.30;99.90
40996;DHT22;26723;57.478;12.066;2024-02-21T12:31:24;7.40;99.90
40996;DHT22;26723;57.478;12.066;2024-02-21T12:34:33;7.50;99.90
40996;DHT22;26723;57.478;12.066;2024-02-21T12:37:58;7.60;99.90
40996;DHT22;26723;57.478;12.066;2024-02-21T12:41:10;7.70;99.90
40996;DHT22;26723;57.478;12.066;2024-02-21T12:44:18;7.70;99.90
40996;DHT22;26723;57.478;12.066;2024-02-21T12:47:27;7.50;99.90
40996;DHT22;26723;57.478;12.066;2024-02-21T12:50:35;7.40;99.90
40996;DHT22;26723;57.478;12.066;2024-02-21T12:53:44;7.20;99.90
40996;DHT22;26723;57.478;12.066;2024-02-21T12:56:53;7.10;99.90
40996;DHT22;26723;57.478;12.066;2024-02-21T13:00:02;6.90;99.90
40996;DHT22;26723;57.478;12.066;2024-02-21T13:03:15;6.90;99.90
40996;DHT22;26723;57.478;12.066;2024-02-21T13:06:23;6.90;99.90
40996;DHT22;26723;57.478;12.066;2024-02-21T13:09:32;6.90;99.90
40996;DHT22;26723;57.478;12.066;2024-02-21T13:12:41;6.80;99.90
40996;DHT22;26723;57.478;12.066;2024-02-21T13:15:49;6.90;99.90
40996;DHT22;26723;57.478;12.066;2024-02-21T13:18:58;6.80;99.90
40996;DHT22;26723;57.478;12.066;2024-02-21T13:22:06;6.80;99.90
40996;DHT22;26723;57.478;12.066;2024-02-21T13:25:15;6.80;99.90
40996;DHT22;26723;57.478;12.066;2024-02-21T13:28:26;6.80;99.90
40996;DHT22;26723;57.478;12.066;2024-02-21T13:31:36;6.60;99.90
40996;DHT22;26723;57.478;12.066;2024-02-21T13:34:47;6.50;99.90
40996;DHT22;26723;57.478;12.066;2024-02-21T13:37:57;6.40;99.90
40996;DHT22;26723;57.478;12.066;2024-02-21T13:41:06;6.50;99.90
40996;DHT22;26723;57.478;12.066;2024-02-21T13:44:16;6.50;99.90
40996;DHT22;26723;57.478;12.066;2024-02-21T13:47:24;6.60;99.90
40996;DHT22;26723;57.478;12.066;2024-02-21T13:50:33;6.60;99.90
40996;DHT22;26723;57.478;12.066;2024-02-21T13:53:49;6.60;99.90
40996;DHT22;26723;57.478;12.066;2024-02-21T13:56:58;6.60;99.90
40996;DHT22;26723;57.478;12.066;2024-02-21T14:00:09;6.70;99.90
40996;DHT22;26723;57.478;12.066;2024-02-21T14:03:18;6.80;99.90
40996;DHT22;26723;57.478;12.066;2024-02-21T14:06:27;6.80;99.90
40996;DHT22;26723;57.478;12.066;2024-02-21T14:09:35;6.90;99.90
40996;DHT22;26723;57.478;12.066;2024-02-21T14:12:44;6.90;99.90
40996;DHT22;26723;57.478;12.066;2024-02-21T14:15:53;7.00;99.90
40996;DHT22;26723;57.478;12.066;2024-02-21T14:19:01;7.00;99.90
40996;DHT22;26723;57.478;12.066;2024-02-21T14:22:10;7.10;99.90
40996;DHT22;26723;57.478;12.066;2024-02-21T14:25:18;7.10;99.90
40996;DHT22;26723;57.478;12.066;2024-02-21T14:28:26;7.10;99.90
40996;DHT22;26723;57.478;12.066;2024-02-21T14:31:36;7.10;99.90
40996;DHT22;26723;57.478;12.066;2024-02-21T14:34:47;7.00;99.90
40996;DHT22;26723;57.478;12.066;2024-02-21T14:37:56;6.90;99.90
40996;DHT22;26723;57.478;12.066;2024-02-21T14:41:04;6.80;99.90
40996;DHT22;26723;57.478;12.066;2024-02-21T14:44:13;6.90;99.90
40996;DHT22;26723;57.478;12.066;2024-02-21T14:47:23;6.90;99.90
40996;DHT22;26723;57.478;12.066;2024-02-21T14:50:31;6.80;99.90
40996;DHT22;26723;57.478;12.066;2024-02-21T14:53:39;6.80;99.90
40996;DHT22;26723;57.478;12.066;2024-02-21T14:56:47;6.80;99.90
40996;DHT22;26723;57.478;12.066;2024-02-21T14:59:55;6.70;99.90
40996;DHT22;26723;57.478;12.066;2024-02-21T15:03:07;6.70;99.90
40996;DHT22;26723;57.478;12.066;2024-02-21T15:06:18;6.50;99.90
40996;DHT22;26723;57.478;12.066;2024-02-21T15:09:27;6.50;99.90
40996;DHT22;26723;57.478;12.066;2024-02-21T15:12:35;6.50;99.90
40996;DHT22;26723;57.478;12.066;2024-02-21T15:15:44;6.30;99.90
40996;DHT22;26723;57.478;12.066;2024-02-21T15:18:56;6.30;99.90
40996;DHT22;26723;57.478;12.066;2024-02-21T15:22:04;6.20;99.90
40996;DHT22;26723;57.478;12.066;2024-02-21T15:25:13;6.20;99.90
40996;DHT22;26723;57.478;12.066;2024-02-21T15:28:22;6.20;99.90
40996;DHT22;26723;57.478;12.066;2024-02-21T15:31:30;6.20;99.90
40996;DHT22;26723;57.478;12.066;2024-02-21T15:34:42;6.10;99.90
40996;DHT22;26723;57.478;12.066;2024-02-21T15:37:51;6.10;99.90
40996;DHT22;26723;57.478;12.066;2024-02-21T15:40:59;6.10;99.90
40996;DHT22;26723;57.478;12.066;2024-02-21T15:44:08;6.10;99.90
40996;DHT22;26723;57.478;12.066;2024-02-21T15:47:16;6.10;99.90
40996;DHT22;26723;57.478;12.066;2024-02-21T15:50:27;6.10;99.90
40996;DHT22;26723;57.478;12.066;2024-02-21T15:53:36;6.10;99.90
40996;DHT22;26723;57.478;12.066;2024-02-21T15:56:45;6.10;99.90
40996;DHT22;26723;57.478;12.066;2024-02-21T15:59:53;6.10;99.90
40996;DHT22;26723;57.478;12.066;2024-02-21T16:03:02;6.10;99.90
40996;DHT22;26723;57.478;12.066;2024-02-21T16:06:11;6.00;99.90
40996;DHT22;26723;57.478;12.066;2024-02-21T16:09:20;6.10;99.90
40996;DHT22;26723;57.478;12.066;2024-02-21T16:12:28;6.00;99.90
40996;DHT22;26723;57.478;12.066;2024-02-21T16:15:39;6.00;99.90
40996;DHT22;26723;57.478;12.066;2024-02-21T16:18:49;6.00;99.90
40996;DHT22;26723;57.478;12.066;2024-02-21T16:21:59;5.90;99.90
40996;DHT22;26723;57.478;12.066;2024-02-21T16:25:11;5.90;99.90
40996;DHT22;26723;57.478;12.066;2024-02-21T16:28:20;5.80;99.90
40996;DHT22;26723;57.478;12.066;2024-02-21T16:31:28;5.70;99.90
40996;DHT22;26723;57.478;12.066;2024-02-21T16:34:36;5.70;99.90
40996;DHT22;26723;57.478;12.066;2024-02-21T16:37:47;5.70;99.90
40996;DHT22;26723;57.478;12.066;2024-02-21T16:40:56;5.60;99.90
40996;DHT22;26723;57.478;12.066;2024-02-21T16:44:04;5.60;99.90
40996;DHT22;26723;57.478;12.066;2024-02-21T16:47:12;5.50;99.90
40996;DHT22;26723;57.478;12.066;2024-02-21T16:50:21;5.50;99.90
40996;DHT22;26723;57.478;12.066;2024-02-21T16:53:30;5.50;99.90
40996;DHT22;26723;57.478;12.066;2024-02-21T16:56:38;5.40;99.90
40996;DHT22;26723;57.478;12.066;2024-02-21T16:59:47;5.40;99.90
40996;DHT22;26723;57.478;12.066;2024-02-21T17:02:55;5.30;99.90
40996;DHT22;26723;57.478;12.066;2024-02-21T17:06:06;5.20;99.90
40996;DHT22;26723;57.478;12.066;2024-02-21T17:09:25;5.30;99.90
40996;DHT22;26723;57.478;12.066;2024-02-21T17:12:34;5.30;99.90
40996;DHT22;26723;57.478;12.066;2024-02-21T17:15:44;5.20;99.90
40996;DHT22;26723;57.478;12.066;2024-02-21T17:18:52;5.10;99.90
40996;DHT22;26723;57.478;12.066;2024-02-21T17:22:02;5.00;99.90
40996;DHT22;26723;57.478;12.066;2024-02-21T17:25:14;5.00;99.90
40996;DHT22;26723;57.478;12.066;2024-02-21T17:28:22;4.90;99.90
40996;DHT22;26723;57.478;12.066;2024-02-21T17:31:31;4.80;99.90
40996;DHT22;26723;57.478;12.066;2024-02-21T17:34:40;4.60;99.90
40996;DHT22;26723;57.478;12.066;2024-02-21T17:37:52;4.60;99.90
40996;DHT22;26723;57.478;12.066;2024-02-21T17:41:02;4.50;99.90
40996;DHT22;26723;57.478;12.066;2024-02-21T17:44:10;4.50;99.90
40996;DHT22;26723;57.478;12.066;2024-02-21T17:47:19;4.50;99.90
40996;DHT22;26723;57.478;12.066;2024-02-21T17:50:27;4.40;99.90
40996;DHT22;26723;57.478;12.066;2024-02-21T17:53:36;4.40;99.90
40996;DHT22;26723;57.478;12.066;2024-02-21T17:56:46;4.50;99.90
40996;DHT22;26723;57.478;12.066;2024-02-21T17:59:54;4.40;99.90
40996;DHT22;26723;57.478;12.066;2024-02-21T18:03:03;4.50;99.90
40996;DHT22;26723;57.478;12.066;2024-02-21T18:06:14;4.50;99.90
40996;DHT22;26723;57.478;12.066;2024-02-21T18:09:27;4.50;99.90
40996;DHT22;26723;57.478;12.066;2024-02-21T18:12:37;4.50;99.90
40996;DHT22;26723;57.478;12.066;2024-02-21T18:15:45;4.50;99.90
40996;DHT22;26723;57.478;12.066;2024-02-21T18:18:55;4.50;99.90
40996;DHT22;26723;57.478;12.066;2024-02-21T18:22:05;4.50;99.90
40996;DHT22;26723;57.478;12.066;2024-02-21T18:25:14;4.50;99.90
40996;DHT22;26723;57.478;12.066;2024-02-21T18:28:24;4.60;99.90
40996;DHT22;26723;57.478;12.066;2024-02-21T18:31:32;4.60;99.90
40996;DHT22;26723;57.478;12.066;2024-02-21T18:34:40;4.60;99.90
40996;DHT22;26723;57.478;12.066;2024-02-21T18:37:49;4.60;99.90
40996;DHT22;26723;57.478;12.066;2024-02-21T18:40:57;4.70;99.90
40996;DHT22;26723;57.478;12.066;2024-02-21T18:44:06;4.70;99.90
40996;DHT22;26723;57.478;12.066;2024-02-21T18:47:15;4.60;99.90
40996;DHT22;26723;57.478;12.066;2024-02-21T18:50:23;4.60;99.90
40996;DHT22;26723;57.478;12.066;2024-02-21T18:53:32;4.60;99.90
40996;DHT22;26723;57.478;12.066;2024-02-21T18:56:44;4.50;99.90
40996;DHT22;26723;57.478;12.066;2024-02-21T18:59:54;4.50;99.90
40996;DHT22;26723;57.478;12.066;2024-02-21T19:03:02;4.50;99.90
40996;DHT22;26723;57.478;12.066;2024-02-21T19:06:12;4.50;99.90
40996;DHT22;26723;57.478;12.066;2024-02-21T19:09:22;4.50;99.90
40996;DHT22;26723;57.478;12.066;2024-02-21T19:12:30;4.40;99.90
40996;DHT22;26723;57.478;12.066;2024-02-21T19:15:40;4.50;99.90
40996;DHT22;26723;57.478;12.066;2024-02-21T19:18:48;4.40;99.90
40996;DHT22;26723;57.478;12.066;2024-02-21T19:21:57;4.40;99.90
40996;DHT22;26723;57.478;12.066;2024-02-21T19:25:06;4.40;99.90
40996;DHT22;26723;57.478;12.066;2024-02-21T19:28:19;4.30;99.90
40996;DHT22;26723;57.478;12.066;2024-02-21T19:31:30;4.30;99.90
40996;DHT22;26723;57.478;12.066;2024-02-21T19:34:39;4.30;99.90
40996;DHT22;26723;57.478;12.066;2024-02-21T19:37:48;4.20;99.90
40996;DHT22;26723;57.478;12.066;2024-02-21T19:40:59;4.20;99.90
40996;DHT22;26723;57.478;12.066;2024-02-21T19:44:08;4.20;99.90
40996;DHT22;26723;57.478;12.066;2024-02-21T19:47:19;4.30;99.90
40996;DHT22;26723;57.478;12.066;2024-02-21T19:50:27;4.20;99.90
40996;DHT22;26723;57.478;12.066;2024-02-21T19:53:39;4.10;99.90
40996;DHT22;26723;57.478;12.066;2024-02-21T19:56:48;4.10;99.90